createdAt,value
2022-12-22T00:02:46.922Z,74.43
2022-12-22T00:05:39.093Z,74.33
2022-12-22T00:08:29.840Z,74.34
2022-12-22T00:11:20.670Z,74.12
2022-12-22T00:14:10.322Z,74.03
2022-12-22T00:16:59.874Z,74.07
2022-12-22T00:19:49.651Z,74.11
2022-12-22T00:22:41.474Z,74.37
2022-12-22T00:25:33.752Z,74.37
2022-12-22T00:28:30.588Z,74.34
2022-12-22T00:31:20.360Z,74.14
2022-12-22T00:34:10.178Z,74.28
2022-12-22T00:36:59.837Z,74.08
2022-12-22T00:39:49.421Z,74.08
2022-12-22T00:42:38.947Z,74.27
2022-12-22T00:45:29.874Z,74.30
2022-12-22T00:48:20.045Z,74.38
2022-12-22T00:51:09.774Z,74.25
2022-12-22T00:53:59.325Z,74.54
2022-12-22T00:56:48.954Z,74.25
2022-12-22T00:59:39.168Z,74.25
2022-12-22T01:02:28.859Z,74.23
2022-12-22T01:05:18.566Z,74.08
2022-12-22T01:08:08.129Z,74.12
2022-12-22T01:10:57.991Z,74.25
2022-12-22T01:13:48.783Z,74.11
2022-12-22T01:16:38.456Z,74.24
2022-12-22T01:19:28.336Z,74.35
2022-12-22T01:22:18.185Z,74.40
2022-12-22T01:25:07.826Z,74.43
2022-12-22T01:27:57.382Z,74.28
2022-12-22T01:30:46.948Z,74.14
2022-12-22T01:33:36.580Z,74.11
2022-12-22T01:36:26.736Z,74.17
2022-12-22T01:39:16.541Z,74.38
2022-12-22T01:42:07.422Z,74.43
2022-12-22T01:44:57.216Z,74.46
2022-12-22T01:47:54.018Z,74.25
2022-12-22T01:50:48.117Z,74.55
2022-12-22T01:53:41.753Z,74.59
2022-12-22T01:56:31.537Z,74.50
2022-12-22T01:59:22.713Z,74.61
2022-12-22T02:02:12.303Z,74.48
2022-12-22T02:05:06.752Z,74.42
2022-12-22T02:08:20.829Z,74.37
2022-12-22T02:11:30.353Z,74.43
2022-12-22T02:14:35.602Z,74.48
2022-12-22T02:17:35.476Z,74.54
2022-12-22T02:20:50.050Z,74.69
2022-12-22T02:23:54.554Z,74.53
2022-12-22T02:26:50.531Z,74.53
2022-12-22T02:29:44.814Z,74.66
2022-12-22T02:32:35.940Z,74.68
2022-12-22T02:35:32.637Z,74.45
2022-12-22T02:38:31.566Z,74.59
2022-12-22T02:41:33.801Z,74.32
2022-12-22T02:44:41.920Z,74.41
2022-12-22T02:47:37.948Z,74.47
2022-12-22T02:50:34.536Z,74.26
2022-12-22T02:53:27.354Z,74.41
2022-12-22T02:56:23.229Z,74.32
2022-12-22T02:59:13.453Z,74.45
2022-12-22T03:02:05.838Z,74.51
2022-12-22T03:04:56.101Z,74.50
2022-12-22T03:07:45.865Z,74.51
2022-12-22T03:10:35.441Z,74.59
2022-12-22T03:13:24.936Z,74.76
2022-12-22T03:16:14.577Z,74.86
2022-12-22T03:19:04.204Z,74.93
2022-12-22T03:21:53.609Z,74.96
2022-12-22T03:24:43.494Z,74.66
2022-12-22T03:27:15.673Z,74.82
2022-12-22T03:29:47.937Z,74.47
2022-12-22T03:32:20.481Z,74.49
2022-12-22T03:34:52.621Z,74.38
2022-12-22T03:37:24.786Z,74.64
2022-12-22T03:39:56.977Z,74.75
2022-12-22T03:42:46.530Z,74.55
2022-12-22T03:45:36.184Z,74.56
2022-12-22T03:48:08.817Z,74.40
2022-12-22T03:50:41.008Z,74.47
2022-12-22T03:53:13.181Z,74.61
2022-12-22T03:55:45.437Z,74.79
2022-12-22T03:58:17.598Z,74.89
2022-12-22T04:00:49.890Z,74.74
2022-12-22T04:03:22.211Z,74.84
2022-12-22T04:05:54.425Z,74.86
2022-12-22T04:08:26.565Z,74.93
2022-12-22T04:11:16.397Z,74.90
2022-12-22T04:13:48.590Z,74.94
2022-12-22T04:16:20.844Z,74.68
2022-12-22T04:18:53.125Z,74.69
2022-12-22T04:21:25.305Z,74.64
2022-12-22T04:23:57.545Z,74.62
2022-12-22T04:26:29.873Z,74.58
2022-12-22T04:29:02.116Z,74.90
2022-12-22T04:31:34.489Z,74.93
2022-12-22T04:34:06.860Z,74.94
2022-12-22T04:36:39.399Z,74.77
2022-12-22T04:39:11.683Z,74.55
2022-12-22T04:41:44.771Z,74.73
2022-12-22T04:44:17.047Z,74.72
2022-12-22T04:46:49.237Z,74.93
2022-12-22T04:49:21.401Z,74.77
2022-12-22T04:51:53.659Z,74.82
2022-12-22T04:54:25.788Z,74.64
2022-12-22T04:56:57.989Z,74.85
2022-12-22T04:59:30.264Z,74.66
2022-12-22T05:02:02.555Z,75.02
2022-12-22T05:04:34.865Z,74.75
2022-12-22T05:07:07.929Z,74.85
2022-12-22T05:09:40.263Z,74.97
2022-12-22T05:12:29.940Z,74.96
2022-12-22T05:15:02.237Z,74.87
2022-12-22T05:17:34.410Z,74.69
2022-12-22T05:20:07.791Z,74.67
2022-12-22T05:22:40.142Z,74.75
2022-12-22T05:25:16.610Z,74.57
2022-12-22T05:27:51.135Z,74.72
2022-12-22T05:30:23.710Z,74.87
2022-12-22T05:32:56.030Z,74.81
2022-12-22T05:35:28.276Z,74.66
2022-12-22T05:38:00.563Z,74.78
2022-12-22T05:40:32.884Z,74.53
2022-12-22T05:43:05.888Z,74.69
2022-12-22T05:45:38.396Z,74.69
2022-12-22T05:48:10.660Z,74.69
2022-12-22T05:50:42.830Z,74.78
2022-12-22T05:53:15.283Z,75.08
2022-12-22T05:55:47.490Z,74.81
2022-12-22T05:58:19.762Z,74.77
2022-12-22T06:00:52.040Z,74.63
2022-12-22T06:03:24.387Z,74.57
2022-12-22T06:05:56.946Z,74.67
2022-12-22T06:08:29.681Z,74.80
2022-12-22T06:11:01.966Z,74.76
2022-12-22T06:13:34.217Z,74.76
2022-12-22T06:16:07.303Z,74.71
2022-12-22T06:18:39.537Z,74.64
2022-12-22T06:21:11.702Z,74.56
2022-12-22T06:23:43.952Z,74.59
2022-12-22T06:26:16.093Z,74.47
2022-12-22T06:28:49.233Z,74.80
2022-12-22T06:31:21.593Z,74.79
2022-12-22T06:33:53.978Z,74.89
2022-12-22T06:36:26.165Z,75.06
2022-12-22T06:38:58.325Z,75.14
2022-12-22T06:41:48.437Z,74.72
2022-12-22T06:44:20.757Z,74.91
2022-12-22T06:46:53.179Z,74.88
2022-12-22T06:49:26.031Z,74.89
2022-12-22T06:51:58.301Z,74.79
2022-12-22T06:54:30.589Z,74.83
2022-12-22T06:57:02.807Z,74.90
2022-12-22T06:59:34.986Z,74.96
2022-12-22T07:02:07.850Z,74.79
2022-12-22T07:04:40.190Z,74.57
2022-12-22T07:07:12.514Z,74.46
2022-12-22T07:09:44.796Z,74.60
2022-12-22T07:12:17.002Z,74.63
2022-12-22T07:14:49.185Z,74.63
2022-12-22T07:17:21.513Z,74.87
2022-12-22T07:19:53.701Z,74.73
2022-12-22T07:22:30.458Z,75.01
2022-12-22T07:25:03.277Z,74.97
2022-12-22T07:27:35.447Z,74.64
2022-12-22T07:30:09.237Z,75.10
2022-12-22T07:32:41.413Z,74.92
2022-12-22T07:35:13.754Z,75.06
2022-12-22T07:37:46.077Z,74.78
2022-12-22T07:40:18.568Z,74.57
2022-12-22T07:42:50.768Z,74.93
2022-12-22T07:45:23.032Z,74.98
2022-12-22T07:48:00.160Z,74.67
2022-12-22T07:50:33.057Z,74.34
2022-12-22T07:53:06.403Z,74.63
2022-12-22T07:55:39.872Z,74.74
2022-12-22T07:58:12.170Z,74.40
2022-12-22T08:00:44.460Z,74.34
2022-12-22T08:03:16.658Z,74.61
2022-12-22T08:05:49.061Z,74.77
2022-12-22T08:08:21.205Z,74.52
2022-12-22T08:10:53.349Z,74.63
2022-12-22T08:13:25.957Z,74.79
2022-12-22T08:16:03.934Z,74.92
2022-12-22T08:18:37.293Z,74.74
2022-12-22T08:21:10.349Z,74.70
2022-12-22T08:23:42.929Z,75.00
2022-12-22T08:26:19.644Z,74.88
2022-12-22T08:28:55.689Z,74.94
2022-12-22T08:31:30.607Z,74.84
2022-12-22T08:34:07.238Z,75.05
2022-12-22T08:36:43.344Z,74.91
2022-12-22T08:39:16.273Z,75.03
2022-12-22T08:41:51.455Z,75.16
2022-12-22T08:44:25.882Z,75.09
2022-12-22T08:47:00.457Z,74.96
2022-12-22T08:49:33.187Z,74.66
2022-12-22T08:52:05.717Z,74.64
2022-12-22T08:54:37.993Z,74.77
2022-12-22T08:57:10.309Z,74.74
2022-12-22T08:59:42.634Z,74.95
2022-12-22T09:02:15.103Z,74.90
2022-12-22T09:04:47.327Z,74.64
2022-12-22T09:07:19.579Z,74.76
2022-12-22T09:09:52.003Z,74.67
2022-12-22T09:12:24.421Z,74.54
2022-12-22T09:14:57.096Z,74.74
2022-12-22T09:17:29.521Z,74.62
2022-12-22T09:20:01.793Z,75.08
2022-12-22T09:22:34.183Z,75.08
2022-12-22T09:25:07.310Z,74.94
2022-12-22T09:27:39.661Z,74.79
2022-12-22T09:30:14.093Z,74.68
2022-12-22T09:32:46.307Z,74.46
2022-12-22T09:35:18.733Z,74.36
2022-12-22T09:37:51.722Z,74.30
2022-12-22T09:40:24.835Z,74.57
2022-12-22T09:42:57.083Z,74.49
2022-12-22T09:45:29.404Z,74.80
2022-12-22T09:48:02.384Z,74.53
2022-12-22T09:50:36.066Z,74.57
2022-12-22T09:53:14.426Z,74.37
2022-12-22T09:55:49.085Z,74.43
2022-12-22T09:58:26.612Z,74.59
2022-12-22T10:01:09.703Z,74.29
2022-12-22T10:03:52.746Z,74.36
2022-12-22T10:06:35.753Z,74.31
2022-12-22T10:09:46.236Z,74.46
2022-12-22T10:12:14.649Z,74.32
2022-12-22T10:14:49.874Z,74.53
2022-12-22T10:17:28.164Z,74.52
2022-12-22T10:20:26.538Z,74.39
2022-12-22T10:23:00.869Z,74.34
2022-12-22T10:26:26.263Z,74.51
2022-12-22T10:28:36.273Z,73.99
2022-12-22T10:31:20.149Z,74.26
2022-12-22T10:33:55.117Z,74.08
2022-12-22T10:36:31.748Z,74.46
2022-12-22T10:39:06.989Z,74.74
2022-12-22T10:41:43.255Z,74.78
2022-12-22T10:44:25.496Z,74.22
2022-12-22T10:46:59.381Z,73.66
2022-12-22T10:52:21.335Z,73.87
2022-12-22T10:55:18.103Z,73.62
2022-12-22T10:57:51.130Z,73.85
2022-12-22T11:00:29.970Z,73.61
2022-12-22T11:03:04.672Z,74.03
2022-12-22T11:05:37.726Z,74.00
2022-12-22T11:08:19.792Z,73.97
2022-12-22T11:10:56.895Z,74.07
2022-12-22T11:13:49.159Z,73.83
2022-12-22T11:16:27.270Z,73.57
2022-12-22T11:19:17.768Z,74.14
2022-12-22T11:21:57.360Z,73.53
2022-12-22T11:24:39.868Z,73.88
2022-12-22T11:27:27.988Z,73.60
2022-12-22T11:30:12.044Z,73.89
2022-12-22T11:33:13.154Z,73.43
2022-12-22T11:35:57.960Z,73.84
2022-12-22T11:38:47.003Z,74.01
2022-12-22T11:41:34.547Z,73.60
2022-12-22T11:44:30.573Z,73.45
2022-12-22T11:47:12.985Z,73.55
2022-12-22T11:50:00.210Z,73.59
2022-12-22T11:53:05.717Z,73.43
2022-12-22T11:55:40.210Z,73.46
2022-12-22T11:58:31.080Z,73.59
2022-12-22T12:01:26.133Z,73.73
2022-12-22T12:04:23.457Z,74.00
2022-12-22T12:07:27.190Z,73.82
2022-12-22T12:10:14.875Z,73.53
2022-12-22T12:12:55.365Z,73.32
2022-12-22T12:15:38.122Z,73.43
2022-12-22T12:18:43.338Z,73.23
2022-12-22T12:21:28.365Z,73.63
2022-12-22T12:24:25.322Z,73.13
2022-12-22T12:27:00.868Z,73.36
2022-12-22T12:29:39.582Z,72.46
2022-12-22T12:32:17.819Z,72.85
2022-12-22T12:34:58.979Z,73.47
2022-12-22T12:37:38.013Z,73.16
2022-12-22T12:40:31.772Z,73.10
2022-12-22T12:43:06.766Z,73.52
2022-12-22T12:45:42.798Z,73.74
2022-12-22T12:48:40.974Z,73.73
2022-12-22T12:51:43.423Z,73.75
2022-12-22T12:54:48.253Z,73.55
2022-12-22T12:57:46.236Z,73.88
2022-12-22T14:21:58.474Z,73.00
2022-12-22T14:24:36.184Z,72.94
2022-12-22T14:27:15.174Z,72.94
2022-12-22T14:29:45.086Z,72.57
2022-12-22T14:32:34.882Z,72.77
2022-12-22T14:35:04.674Z,72.80
2022-12-22T14:37:33.677Z,72.76
2022-12-22T14:40:02.561Z,72.76
2022-12-22T14:42:33.690Z,72.73
2022-12-22T14:45:02.557Z,73.01
2022-12-22T14:47:36.380Z,72.56
2022-12-22T14:50:16.813Z,72.67
2022-12-22T14:52:48.814Z,72.78
2022-12-22T14:55:27.868Z,72.64
2022-12-22T14:58:00.442Z,72.84
2022-12-22T15:00:34.291Z,72.99
2022-12-22T15:03:06.822Z,72.72
2022-12-22T15:05:38.596Z,72.64
2022-12-22T15:08:22.211Z,72.74
2022-12-22T15:10:51.139Z,72.98
2022-12-22T15:13:23.475Z,72.91
2022-12-22T15:15:53.362Z,73.16
2022-12-22T15:18:25.568Z,73.50
2022-12-22T15:20:55.895Z,73.22
2022-12-22T15:23:24.809Z,73.11
2022-12-22T15:25:53.635Z,73.37
2022-12-22T15:28:22.593Z,73.35
2022-12-22T15:30:52.348Z,72.76
2022-12-22T15:33:21.434Z,72.83
2022-12-22T15:35:50.336Z,73.23
2022-12-22T15:38:22.002Z,73.06
2022-12-22T15:40:51.687Z,72.84
2022-12-22T15:43:55.903Z,72.52
2022-12-22T15:46:14.682Z,73.32
2022-12-22T15:48:44.933Z,73.05
2022-12-22T15:51:20.255Z,73.02
2022-12-22T15:53:49.654Z,72.80
2022-12-22T15:56:20.980Z,73.00
2022-12-22T15:58:50.235Z,73.03
2022-12-22T16:01:19.190Z,73.58
2022-12-22T16:03:48.243Z,73.04
2022-12-22T16:06:19.441Z,73.03
2022-12-22T16:08:51.391Z,72.84
2022-12-22T16:11:20.491Z,72.98
2022-12-22T16:13:50.693Z,73.03
2022-12-22T16:16:19.736Z,73.39
2022-12-22T16:18:48.730Z,73.13
2022-12-22T16:21:20.368Z,73.22
2022-12-22T16:23:50.746Z,73.30
2022-12-22T16:26:21.904Z,73.07
2022-12-22T16:28:50.880Z,72.85
2022-12-22T16:31:22.029Z,72.91
2022-12-22T16:33:51.864Z,73.00
2022-12-22T16:36:41.478Z,72.86
2022-12-22T16:39:10.336Z,73.14
2022-12-22T16:41:40.442Z,73.10
2022-12-22T16:46:57.594Z,73.25
2022-12-22T16:49:27.156Z,72.84
2022-12-22T16:51:56.308Z,72.58
2022-12-22T16:54:25.480Z,73.07
2022-12-22T16:56:54.377Z,73.17
2022-12-22T16:59:25.102Z,73.10
2022-12-22T17:01:56.370Z,72.81
2022-12-22T17:04:28.535Z,73.02
2022-12-22T17:06:59.441Z,72.92
2022-12-22T17:09:32.454Z,73.21
2022-12-22T17:12:01.594Z,73.10
2022-12-22T17:14:34.163Z,72.99
2022-12-22T17:17:03.374Z,72.78
2022-12-22T17:19:32.379Z,73.16
2022-12-22T17:22:01.600Z,72.82
2022-12-22T17:24:30.614Z,72.72
2022-12-22T17:27:03.741Z,72.80
2022-12-22T17:29:34.534Z,72.55
2022-12-22T17:32:03.536Z,72.87
2022-12-22T17:34:32.602Z,72.58
2022-12-22T17:37:01.553Z,72.82
2022-12-22T17:39:32.157Z,73.18
2022-12-22T17:42:01.042Z,72.94
2022-12-22T17:44:29.941Z,72.60
2022-12-22T17:46:58.940Z,72.81
2022-12-22T17:49:28.074Z,73.11
2022-12-22T17:51:58.184Z,73.51
2022-12-22T17:54:30.922Z,73.03
2022-12-22T17:57:02.892Z,73.12
2022-12-22T17:59:32.288Z,73.20
2022-12-22T18:02:01.500Z,73.05
2022-12-22T18:04:30.712Z,73.31
2022-12-22T18:06:59.927Z,72.99
2022-12-22T18:09:28.834Z,73.44
2022-12-22T18:11:58.920Z,73.10
2022-12-22T18:14:27.887Z,72.99
2022-12-22T18:16:56.850Z,72.81
2022-12-22T18:19:25.819Z,73.46
2022-12-22T18:21:54.676Z,73.38
2022-12-22T18:24:23.633Z,73.16
2022-12-22T18:26:52.498Z,73.22
2022-12-22T18:29:22.762Z,72.85
2022-12-22T18:31:51.883Z,72.73
2022-12-22T18:34:20.939Z,72.81
2022-12-22T18:36:50.538Z,72.94
2022-12-22T18:39:19.822Z,72.99
2022-12-22T18:41:48.838Z,73.03
2022-12-22T18:44:19.138Z,73.24
2022-12-22T18:46:54.347Z,73.46
2022-12-22T18:49:24.685Z,73.62
2022-12-22T18:51:53.573Z,73.74
2022-12-22T18:54:28.811Z,73.73
2022-12-22T18:57:00.244Z,73.57
2022-12-22T18:59:32.957Z,73.14
2022-12-22T19:02:15.890Z,73.17
2022-12-22T19:04:44.831Z,73.41
2022-12-22T19:07:16.162Z,72.59
2022-12-22T19:09:45.339Z,73.12
2022-12-22T19:12:16.114Z,73.41
2022-12-22T19:14:51.444Z,73.26
2022-12-22T19:17:24.075Z,72.98
2022-12-22T19:19:52.996Z,72.80
2022-12-22T19:22:22.117Z,73.14
2022-12-22T19:24:52.153Z,73.31
2022-12-22T19:27:24.257Z,72.82
2022-12-22T19:30:03.174Z,73.02
2022-12-22T19:32:45.489Z,73.24
2022-12-22T19:35:17.939Z,73.27
2022-12-22T19:37:48.195Z,73.45
2022-12-22T19:40:18.551Z,73.20
2022-12-22T19:42:53.309Z,73.86
2022-12-22T19:45:27.038Z,73.67
2022-12-22T19:47:57.320Z,73.39
2022-12-22T19:50:28.382Z,73.88
2022-12-22T19:52:59.023Z,73.44
2022-12-22T19:55:35.204Z,73.55
2022-12-22T19:58:04.424Z,73.65
2022-12-22T20:00:34.650Z,73.09
2022-12-22T20:03:06.304Z,73.01
2022-12-22T20:05:36.306Z,72.83
2022-12-22T20:08:07.960Z,72.97
2022-12-22T20:10:38.700Z,73.03
2022-12-22T20:13:16.062Z,73.04
2022-12-22T20:15:46.008Z,72.99
2022-12-22T20:18:19.386Z,73.07
2022-12-22T20:20:57.618Z,73.28
2022-12-22T20:23:29.274Z,73.31
2022-12-22T20:26:02.680Z,73.36
2022-12-22T20:28:33.892Z,73.33
2022-12-22T20:31:03.568Z,73.13
2022-12-22T20:33:34.993Z,73.53
2022-12-22T20:36:11.999Z,73.67
2022-12-22T20:38:43.657Z,73.50
2022-12-22T20:41:12.549Z,73.85
2022-12-22T20:43:41.837Z,73.45
2022-12-22T20:46:16.506Z,73.18
2022-12-22T20:48:48.597Z,73.54
2022-12-22T20:51:22.003Z,73.40
2022-12-22T20:53:51.753Z,73.32
2022-12-22T20:56:24.334Z,73.33
2022-12-22T20:58:53.742Z,73.44
2022-12-22T21:01:23.481Z,73.40
2022-12-22T21:03:55.523Z,73.64
2022-12-22T21:06:27.471Z,73.37
2022-12-22T21:08:58.845Z,73.13
2022-12-22T21:11:29.460Z,73.03
2022-12-22T21:13:58.989Z,73.23
2022-12-22T21:16:31.219Z,73.31
2022-12-22T21:19:05.548Z,73.03
2022-12-22T21:21:34.773Z,73.27
2022-12-22T21:24:05.882Z,72.92
2022-12-22T21:26:38.482Z,72.92
2022-12-22T21:29:13.075Z,73.37
2022-12-22T21:31:44.092Z,73.58
2022-12-22T21:34:13.152Z,73.37
2022-12-22T21:36:45.133Z,73.05
2022-12-22T21:39:22.552Z,73.42
2022-12-22T21:42:00.537Z,73.28
2022-12-22T21:44:30.959Z,73.26
2022-12-22T21:47:00.763Z,73.74
2022-12-22T21:49:32.024Z,73.33
2022-12-22T21:52:01.195Z,73.19
2022-12-22T21:54:30.074Z,72.95
2022-12-22T21:56:58.956Z,73.33
2022-12-22T21:59:27.918Z,73.40
2022-12-22T22:01:56.984Z,73.69
2022-12-22T22:04:26.127Z,73.82
2022-12-22T22:06:54.963Z,73.94
2022-12-22T22:09:23.785Z,73.87
2022-12-22T22:12:11.101Z,73.86
2022-12-22T22:14:40.127Z,73.71
2022-12-22T22:17:10.694Z,73.76
2022-12-22T22:19:39.530Z,74.07
2022-12-22T22:22:09.486Z,73.73
2022-12-22T22:24:38.429Z,73.96
2022-12-22T22:27:07.289Z,73.71
2022-12-22T22:29:36.183Z,74.34
2022-12-22T22:32:05.836Z,74.08
2022-12-22T22:34:34.688Z,74.16
2022-12-22T22:37:03.574Z,74.09
2022-12-22T22:39:32.496Z,73.83
2022-12-22T22:42:01.456Z,74.31
2022-12-22T22:44:30.409Z,74.06
2022-12-22T22:46:59.468Z,73.73
2022-12-22T22:49:28.949Z,74.07
2022-12-22T22:51:58.150Z,74.20
2022-12-22T22:54:26.957Z,74.17
2022-12-22T22:56:55.789Z,73.73
2022-12-22T22:59:24.642Z,73.68
2022-12-22T23:01:53.545Z,74.12
2022-12-22T23:04:22.520Z,73.71
2022-12-22T23:06:51.454Z,73.80
2022-12-22T23:09:20.337Z,73.76
2022-12-22T23:11:51.964Z,73.84
2022-12-22T23:14:21.348Z,73.82
2022-12-22T23:16:50.565Z,73.92
2022-12-22T23:19:19.880Z,74.05
2022-12-22T23:21:48.997Z,74.04
2022-12-22T23:24:17.893Z,74.21
2022-12-22T23:26:46.812Z,74.03
2022-12-22T23:29:15.656Z,74.44
2022-12-22T23:31:44.637Z,74.31
2022-12-22T23:34:14.089Z,74.48
2022-12-22T23:36:42.927Z,74.26
2022-12-22T23:39:13.234Z,74.28
2022-12-22T23:41:42.174Z,74.24
2022-12-22T23:44:11.180Z,74.15
2022-12-22T23:46:40.756Z,73.57
2022-12-22T23:49:12.096Z,74.09
2022-12-22T23:51:40.969Z,74.10
2022-12-22T23:54:09.814Z,73.88
2022-12-22T23:56:38.777Z,74.16
2022-12-22T23:59:08.093Z,74.28
